METAR Data
IDs: Format: Raw Decoded Include TAF

Data at: 2045 UTC 25 Oct 2021

EDDR 252020Z 25007KT 9999 FEW016 BKN035 11/09 Q1020 NOSIG